Klawock Airport
PAKW : now visible

Airfield :











YOU CAN JOIN US ON...

 
LOGIN :

Register | Disclaimer

   EN    FR    IT 

 









Legend :    VFR   Marginal VFR   IFR   Intensive IFR   Very Intensive IFR
Visi :
Ceiling :
>= 8 km
>= 3000ft
5 to 8 km
1000 to 3000 ft
1500m to 5 km
500 to 1000 ft
800 to 1500m
200 to 500 ft
< 800m
< 200 ft
Symbols :   Thunderstorms  Fog  Heavy snow  Heavy precipitations  Wind > 20 kt






- Airport Elevation : 80 ft
- IATA code : AKW


PAKW - Klawock

CURRENT METAR :
  • 120453Z AUTO VRB06KT 10SM OVC038 07/04 A2933 RMK SLP934 T00670039 TSNO VIA AUTODIAL

EXPIRED METARs :
  • 120353Z AUTO 00000KT 10SM FEW027 OVC035 07/04 A2936 RMK RAE18 SLP942 P0000 T00670039 TSNO VIA AUTODIAL
  • 120253Z AUTO 28003KT 10SM -RA OVC040 07/03 A2934 RMK SLP936 P0001 60001 T00720033 56014 TSNO VIA AUTODIAL

TAF PAKW
Valid from the 12 at 03:00 until the 13 at 00:00 UTC


120255Z 1203/1224 05012G20KT P6SM -RA BKN050 OVC080 WS020/16030KT
FM120900 04007KT 6SM -RA OVC025
TEMPO 1212/1216 4SM -RA BKN015 OVC025 AMD LTD TO CLD VIS AND WIND



MET'MAP, your aeronautical weather chart ! - Copyright ORBIFLY December 2007 - Disclaimer

ORBIFLY MET'MAP TEAM :

Programming & Development : Alexandra Zaïnal
Concept & original design : Baudouin d'Aumeries
Assistance for programming : Marc-Olivier Méhu
Technical & hardware support : Manuel Goepfert

Contact : metmap@orbifly.com




SOURCES & CREDITS :

   NOAA       Earth
Advisory